Evington, Virginia
Current Conditions -  °F | °C
As of 12:54 AM on Friday 31 Oct 2014 (Local Time) from KLYH Reporting Station
Clear Clear  
Wind Chill: 37°   Ceiling: Unl
Heat Index: 37°   Visibility: 10mi
Dew Point: 35°   Wind: 3mph
Humidity: 93%   Direction: 360°N
Pressure: 30.04"   Gusts: NA
Location:  37.23°N, 79.29°W
Report Text: KLYH 310454Z AUTO 36003KT 10SM CLR 03/02 A3004 RMK AO2 SLP174 T00280017 401610017 $
Loading
Personal Weather Stations






























Interactive Weather Map
Tropical Storm Tracking
New forecast layout! Learn more

10-Day Weather Forecast

Advertisements
Track Severe Weather on mobile